Time;durP1;ratioP1;P1;durP2;ratioP2;P2;SDS_P1;SDS_P2;PMS_P1;PMS_P2;Temp;Humidity;BMP_temperature;BMP_pressure;BME280_temperature;BME280_humidity;BME280_pressure;Samples;Min_cycle;Max_cycle;Signal;HPM_P1;HPM_P2
2021/06/03 00:00:03;;;;;;;3.97;1.75;;;14.70;71.40;;;;;;4991991;28;20154;-64
2021/06/03 00:02:31;;;;;;;4.82;2.05;;;14.60;71.90;;;;;;4990730;28;20058;-64
2021/06/03 00:04:58;;;;;;;3.97;2.13;;;14.60;72.20;;;;;;4992708;28;20058;-65
2021/06/03 00:07:25;;;;;;;4.35;2.38;;;14.50;72.70;;;;;;4994138;28;20265;-65
2021/06/03 00:09:54;;;;;;;5.20;2.20;;;14.50;73.00;;;;;;4996379;28;20050;-65
2021/06/03 00:12:21;;;;;;;5.22;2.60;;;14.50;73.20;;;;;;4976601;28;20104;-65
2021/06/03 00:14:49;;;;;;;5.18;2.30;;;14.50;73.20;;;;;;4995165;28;20412;-65
2021/06/03 00:17:16;;;;;;;6.25;2.97;;;14.50;73.30;;;;;;4995919;28;20104;-65
2021/06/03 00:19:43;;;;;;;4.43;2.40;;;14.40;73.60;;;;;;4997728;28;20058;-65
2021/06/03 00:22:10;;;;;;;4.10;1.90;;;14.40;73.40;;;;;;4994372;28;20065;-65
2021/06/03 00:24:37;;;;;;;4.20;2.58;;;14.40;73.30;;;;;;4995083;28;20112;-65
2021/06/03 00:27:07;;;;;;;5.28;2.17;;;14.40;73.40;;;;;;4995023;28;20073;-65
2021/06/03 00:29:34;;;;;;;6.80;2.20;;;14.40;73.40;;;;;;4992849;28;20059;-64
2021/06/03 00:32:05;;;;;;;5.13;1.95;;;14.30;74.00;;;;;;4995401;28;20062;-65
2021/06/03 00:34:32;;;;;;;5.57;2.05;;;14.10;74.70;;;;;;4994402;28;20100;-64
2021/06/03 00:36:59;;;;;;;5.88;2.28;;;14.10;74.60;;;;;;4994868;28;20246;-64
2021/06/03 00:39:26;;;;;;;4.85;1.98;;;14.10;74.80;;;;;;4994583;28;20054;-64
2021/06/03 00:41:53;;;;;;;6.32;2.42;;;14.10;74.60;;;;;;4996320;28;20042;-64
2021/06/03 00:44:20;;;;;;;4.32;2.22;;;14.20;74.60;;;;;;4995429;28;20065;-64
2021/06/03 00:46:48;;;;;;;4.85;2.30;;;14.20;74.70;;;;;;4994584;28;20360;-64
2021/06/03 00:49:18;;;;;;;4.25;2.05;;;14.20;74.60;;;;;;4994940;28;20248;-65
2021/06/03 00:51:45;;;;;;;3.72;1.95;;;14.10;74.70;;;;;;4994476;28;20130;-65
2021/06/03 00:54:15;;;;;;;4.32;2.15;;;14.10;74.70;;;;;;4993391;28;20054;-64
2021/06/03 00:56:42;;;;;;;4.20;2.42;;;14.10;74.70;;;;;;4992062;28;20081;-64
2021/06/03 00:59:15;;;;;;;4.68;2.50;;;14.00;74.70;;;;;;4994234;28;20042;-64
2021/06/03 01:01:43;;;;;;;4.57;2.30;;;13.90;75.40;;;;;;4985459;28;20090;-64
2021/06/03 01:04:16;;;;;;;3.83;2.05;;;13.90;75.50;;;;;;4992506;28;20092;-64
2021/06/03 01:06:49;;;;;;;3.78;2.00;;;14.00;75.20;;;;;;4991686;28;20042;-64
2021/06/03 01:09:23;;;;;;;6.70;2.35;;;13.90;75.60;;;;;;4989934;28;20054;-65
2021/06/03 01:12:09;;;;;;;3.45;1.58;;;13.80;76.20;;;;;;4985823;28;20099;-65
2021/06/03 01:14:40;;;;;;;4.40;2.33;;;13.70;75.50;;;;;;4991877;28;20134;-65
2021/06/03 01:17:07;;;;;;;3.58;1.67;;;13.70;75.30;;;;;;4992515;28;20065;-65
2021/06/03 01:19:37;;;;;;;2.83;1.90;;;13.60;75.20;;;;;;4973451;28;20054;-65
2021/06/03 01:22:18;;;;;;;3.97;1.95;;;13.60;75.30;;;;;;4990431;28;20392;-65
2021/06/03 01:24:53;;;;;;;4.40;2.30;;;13.60;75.30;;;;;;4975230;28;20084;-64
2021/06/03 01:27:25;;;;;;;4.90;1.85;;;13.60;75.70;;;;;;4991872;28;20054;-64
2021/06/03 01:30:08;;;;;;;3.60;2.05;;;13.50;76.00;;;;;;4992440;28;20121;-64
2021/06/03 01:32:39;;;;;;;4.20;1.90;;;13.40;76.10;;;;;;4993730;28;20042;-64
2021/06/03 01:35:07;;;;;;;;;;;13.40;75.90;;;;;;4990378;28;20324;-64
2021/06/03 01:37:35;;;;;;;3.05;1.50;;;13.50;76.00;;;;;;4990121;28;19925;-64
2021/06/03 01:40:10;;;;;;;5.85;1.80;;;13.40;76.20;;;;;;4991181;28;20065;-64
2021/06/03 01:42:38;;;;;;;2.58;1.60;;;13.50;76.20;;;;;;4992117;28;20058;-64
2021/06/03 01:45:08;;;;;;;5.10;1.77;;;13.30;76.80;;;;;;4991056;28;20054;-64
2021/06/03 01:47:35;;;;;;;6.32;2.03;;;13.40;76.80;;;;;;4990181;28;20058;-64
2021/06/03 01:50:06;;;;;;;3.40;1.77;;;13.40;77.00;;;;;;4990752;28;20069;-64
2021/06/03 01:52:36;;;;;;;4.32;2.15;;;13.30;77.50;;;;;;4991031;28;20050;-64
2021/06/03 01:55:08;;;;;;;3.95;2.08;;;13.20;77.40;;;;;;4995896;28;20066;-64
2021/06/03 01:57:36;;;;;;;4.32;2.28;;;13.30;77.30;;;;;;4988947;28;20120;-65
2021/06/03 02:00:24;;;;;;;4.20;2.22;;;13.30;78.00;;;;;;4985901;28;20341;-65
2021/06/03 02:02:55;;;;;;;6.13;2.33;;;13.20;78.20;;;;;;4989354;28;20077;-65
2021/06/03 02:05:33;;;;;;;3.88;2.15;;;13.20;78.50;;;;;;4991185;28;20125;-65
2021/06/03 02:08:01;;;;;;;5.13;2.40;;;13.20;78.20;;;;;;4973128;28;20497;-65
2021/06/03 02:10:37;;;;;;;4.05;2.17;;;13.30;78.10;;;;;;4992687;28;20054;-65
2021/06/03 02:13:15;;;;;;;3.88;2.17;;;13.20;77.90;;;;;;4973645;28;20097;-65
2021/06/03 02:15:51;;;;;;;3.55;2.17;;;13.30;77.80;;;;;;4989389;28;20069;-65
2021/06/03 02:18:22;;;;;;;3.67;2.13;;;13.30;77.70;;;;;;4976584;28;20066;-65
2021/06/03 02:20:53;;;;;;;5.28;2.35;;;13.20;77.80;;;;;;4992094;28;20050;-65
2021/06/03 02:23:24;;;;;;;4.22;2.28;;;13.20;78.00;;;;;;4973023;28;20050;-65
2021/06/03 02:25:57;;;;;;;6.82;2.30;;;13.10;78.50;;;;;;4990106;28;20065;-65
2021/06/03 02:28:26;;;;;;;6.78;2.30;;;12.90;78.80;;;;;;4992674;28;20097;-65
2021/06/03 02:30:55;;;;;;;3.05;1.77;;;12.90;79.10;;;;;;4993078;28;20305;-65
2021/06/03 02:33:23;;;;;;;6.05;2.15;;;12.80;79.50;;;;;;4976602;28;20309;-65
2021/06/03 02:35:52;;;;;;;3.65;2.00;;;12.60;79.70;;;;;;4993279;28;20108;-65
2021/06/03 02:38:23;;;;;;;4.10;2.22;;;12.60;79.80;;;;;;4992329;28;20361;-65
2021/06/03 02:40:52;;;;;;;5.60;2.17;;;12.60;79.90;;;;;;4992288;28;20449;-65
2021/06/03 02:43:21;;;;;;;5.50;1.93;;;12.60;79.90;;;;;;4992927;28;20142;-65
2021/06/03 02:45:48;;;;;;;6.03;2.08;;;12.60;79.90;;;;;;4989691;28;20050;-65
2021/06/03 02:48:16;;;;;;;6.57;2.50;;;12.60;80.30;;;;;;4994359;28;20373;-65
2021/06/03 02:50:43;;;;;;;4.20;2.30;;;12.50;80.60;;;;;;4993996;28;20042;-65
2021/06/03 02:53:12;;;;;;;5.10;2.65;;;12.50;80.50;;;;;;4976461;28;20089;-65
2021/06/03 02:55:42;;;;;;;5.47;2.22;;;12.60;80.50;;;;;;4991902;28;20133;-65
2021/06/03 02:58:12;;;;;;;;;;;12.70;80.20;;;;;;4991565;28;20050;-65
2021/06/03 03:00:44;;;;;;;3.83;2.10;;;12.70;80.10;;;;;;4986402;28;19932;-65
2021/06/03 03:03:13;;;;;;;4.82;2.55;;;12.70;80.00;;;;;;4989722;28;20331;-65
2021/06/03 03:05:44;;;;;;;5.97;2.20;;;12.60;80.10;;;;;;4972993;28;20081;-65
2021/06/03 03:08:17;;;;;;;5.85;2.45;;;12.70;80.20;;;;;;4991899;28;20555;-65
2021/06/03 03:10:48;;;;;;;4.68;2.15;;;12.70;80.10;;;;;;4990944;28;20069;-65
2021/06/03 03:13:17;;;;;;;4.00;2.20;;;12.60;80.20;;;;;;4959019;28;20061;-65
2021/06/03 03:15:46;;;;;;;4.93;2.30;;;12.60;80.30;;;;;;4993660;28;20397;-65
2021/06/03 03:18:14;;;;;;;4.95;2.10;;;12.60;80.50;;;;;;4995016;28;21200;-65
2021/06/03 03:20:43;;;;;;;4.80;2.20;;;12.50;80.90;;;;;;4993826;28;20061;-65
2021/06/03 03:23:12;;;;;;;3.75;1.92;;;12.40;81.10;;;;;;4992529;28;20046;-65
2021/06/03 03:25:41;;;;;;;6.00;2.13;;;12.50;81.10;;;;;;4992966;28;20121;-65
2021/06/03 03:28:09;;;;;;;4.40;2.30;;;12.60;80.70;;;;;;4995874;28;20105;-65
2021/06/03 03:30:41;;;;;;;3.70;2.17;;;12.60;80.40;;;;;;4993427;28;20050;-65
2021/06/03 03:33:12;;;;;;;3.80;2.05;;;12.60;80.10;;;;;;4995541;28;20058;-65
2021/06/03 03:35:41;;;;;;;4.40;2.23;;;12.50;80.00;;;;;;4993284;28;20765;-65
2021/06/03 03:38:09;;;;;;;5.05;2.38;;;12.50;80.00;;;;;;4991984;28;20301;-65
2021/06/03 03:40:37;;;;;;;4.13;2.22;;;12.50;79.90;;;;;;4992564;28;20050;-64
2021/06/03 03:43:05;;;;;;;4.47;2.30;;;12.50;79.90;;;;;;4994549;28;20396;-64
2021/06/03 03:45:32;;;;;;;4.68;2.30;;;12.50;79.90;;;;;;4996135;28;20062;-64
2021/06/03 03:48:03;;;;;;;5.72;2.42;;;12.60;79.80;;;;;;4978720;28;20077;-64
2021/06/03 03:50:32;;;;;;;4.32;2.38;;;12.60;79.70;;;;;;4996252;28;20057;-64
2021/06/03 03:53:03;;;;;;;7.57;2.75;;;12.60;79.70;;;;;;4993130;28;23555;-64
2021/06/03 03:55:31;;;;;;;8.82;2.80;;;12.60;79.70;;;;;;4995604;28;20133;-64
2021/06/03 03:57:58;;;;;;;3.90;1.77;;;12.50;79.80;;;;;;4996467;28;20066;-64
2021/06/03 04:00:28;;;;;;;5.00;2.45;;;12.60;79.80;;;;;;4992382;28;20074;-64
2021/06/03 04:03:09;;;;;;;4.65;2.55;;;12.50;79.90;;;;;;4980251;28;20273;-64
2021/06/03 04:05:39;;;;;;;4.30;2.50;;;12.50;80.10;;;;;;4997880;28;20050;-64
2021/06/03 04:08:12;;;;;;;6.20;2.80;;;12.50;80.10;;;;;;4996084;28;20054;-64
2021/06/03 04:10:39;;;;;;;4.68;2.38;;;12.40;80.20;;;;;;4995570;28;20321;-64
2021/06/03 04:13:06;;;;;;;3.83;2.00;;;12.40;80.60;;;;;;4994899;28;20085;-64
2021/06/03 04:15:40;;;;;;;3.90;2.38;;;12.40;80.80;;;;;;4979562;28;20057;-64
2021/06/03 04:18:08;;;;;;;5.18;2.70;;;12.50;80.60;;;;;;4997258;28;20088;-64
2021/06/03 04:20:36;;;;;;;4.50;2.10;;;12.60;80.30;;;;;;4994621;28;20046;-64
2021/06/03 04:23:07;;;;;;;5.55;2.75;;;12.60;80.20;;;;;;4978497;28;20045;-64
2021/06/03 04:25:36;;;;;;;;;;;12.60;80.10;;;;;;4994362;28;20058;-64
2021/06/03 04:28:06;;;;;;;5.00;2.42;;;12.80;79.70;;;;;;4997308;28;19953;-64
2021/06/03 04:30:34;;;;;;;5.80;2.80;;;12.80;79.20;;;;;;4997222;28;20349;-64
2021/06/03 04:33:01;;;;;;;6.78;2.78;;;12.90;79.10;;;;;;4994956;28;20050;-64
2021/06/03 04:35:30;;;;;;;4.70;2.40;;;13.00;79.00;;;;;;4995748;28;20371;-64
2021/06/03 04:37:57;;;;;;;6.40;2.78;;;13.10;78.50;;;;;;4994514;28;20058;-64
2021/06/03 04:40:25;;;;;;;4.03;2.28;;;13.10;78.40;;;;;;4995373;28;20078;-65
2021/06/03 04:42:53;;;;;;;6.20;2.58;;;13.10;78.50;;;;;;4993863;28;20042;-65
2021/06/03 04:45:21;;;;;;;5.75;2.40;;;13.10;78.40;;;;;;4993794;28;20428;-65
2021/06/03 04:47:49;;;;;;;6.85;2.60;;;13.20;78.10;;;;;;4994728;28;20058;-64
2021/06/03 04:50:19;;;;;;;4.55;2.42;;;13.30;77.80;;;;;;4992000;28;20098;-64
2021/06/03 04:52:46;;;;;;;6.03;2.58;;;13.20;77.50;;;;;;4993877;28;20086;-64
2021/06/03 04:55:20;;;;;;;6.10;2.30;;;13.30;77.60;;;;;;4995275;28;20050;-64
2021/06/03 04:57:49;;;;;;;5.35;2.20;;;13.20;77.50;;;;;;4992885;28;20353;-64
2021/06/03 05:00:19;;;;;;;3.20;1.90;;;13.40;77.60;;;;;;4988093;28;20077;-64
2021/06/03 05:02:46;;;;;;;4.73;2.60;;;13.50;77.70;;;;;;4990528;28;20307;-64
2021/06/03 05:05:14;;;;;;;5.03;2.45;;;13.70;77.30;;;;;;4991293;28;20069;-64
2021/06/03 05:07:41;;;;;;;4.35;2.25;;;13.70;76.80;;;;;;4991767;28;20241;-64
2021/06/03 05:10:09;;;;;;;4.13;2.13;;;13.80;76.50;;;;;;4993209;28;20117;-64
2021/06/03 05:12:37;;;;;;;4.53;2.63;;;13.90;76.20;;;;;;4993931;28;20038;-64
2021/06/03 05:15:07;;;;;;;5.00;2.55;;;14.00;75.80;;;;;;4992752;28;20038;-64
2021/06/03 05:17:34;;;;;;;6.00;2.50;;;14.10;75.50;;;;;;4993031;28;21805;-64
2021/06/03 05:20:04;;;;;;;5.07;2.55;;;14.20;75.20;;;;;;4992323;28;20220;-64
2021/06/03 05:22:31;;;;;;;4.40;2.47;;;14.20;74.50;;;;;;4991882;28;20077;-64
2021/06/03 05:24:58;;;;;;;7.18;2.50;;;14.20;74.40;;;;;;4991675;28;20042;-64
2021/06/03 05:27:25;;;;;;;5.57;2.47;;;14.20;74.10;;;;;;4993424;28;20128;-64
2021/06/03 05:29:52;;;;;;;6.28;2.42;;;14.20;74.10;;;;;;4994458;28;20168;-65
2021/06/03 05:32:20;;;;;;;4.25;2.30;;;14.40;74.30;;;;;;4994512;28;20117;-65
2021/06/03 05:34:47;;;;;;;4.78;2.50;;;14.40;74.50;;;;;;4994707;28;20066;-65
2021/06/03 05:37:14;;;;;;;7.03;2.78;;;14.50;74.90;;;;;;4994040;28;20337;-65
2021/06/03 05:39:41;;;;;;;4.55;2.63;;;14.50;74.80;;;;;;4993194;28;20121;-65
2021/06/03 05:42:08;;;;;;;5.32;2.70;;;14.60;74.80;;;;;;4994935;28;20077;-65
2021/06/03 05:44:35;;;;;;;5.18;2.50;;;14.80;74.50;;;;;;4994317;28;20345;-65
2021/06/03 05:47:03;;;;;;;5.53;2.45;;;14.80;74.20;;;;;;4993938;28;20054;-65
2021/06/03 05:49:32;;;;;;;5.05;2.50;;;14.90;74.00;;;;;;4996027;28;20097;-65
2021/06/03 05:52:02;;;;;;;4.93;2.60;;;15.00;73.90;;;;;;4994252;28;20054;-65
2021/06/03 05:54:29;;;;;;;;;;;15.20;73.50;;;;;;4996211;28;20058;-65
2021/06/03 05:56:56;;;;;;;5.72;2.35;;;15.30;72.70;;;;;;4993484;28;20230;-65
2021/06/03 05:59:23;;;;;;;6.47;2.40;;;15.40;72.50;;;;;;4993675;28;20042;-65
2021/06/03 06:01:52;;;;;;;4.38;2.40;;;15.60;71.60;;;;;;4992209;28;20062;-65
2021/06/03 06:07:08;;;;;;;5.30;2.17;;;15.70;71.10;;;;;;4996202;28;20076;-66
2021/06/03 06:09:35;;;;;;;3.78;2.22;;;16.00;69.50;;;;;;4993756;28;20065;-65
2021/06/03 06:12:04;;;;;;;4.57;2.58;;;16.10;69.40;;;;;;4992625;28;20089;-65
2021/06/03 06:14:31;;;;;;;6.03;2.63;;;16.20;68.40;;;;;;4974546;28;20105;-65
2021/06/03 06:16:58;;;;;;;6.22;2.40;;;16.30;68.60;;;;;;4994879;28;21262;-65
2021/06/03 06:19:25;;;;;;;7.40;2.70;;;16.40;68.40;;;;;;4995067;28;20112;-65
2021/06/03 06:21:52;;;;;;;5.47;2.78;;;16.60;68.20;;;;;;4993854;28;20613;-65
2021/06/03 06:24:21;;;;;;;4.55;2.47;;;16.60;67.60;;;;;;4993201;28;20105;-65
2021/06/03 06:26:48;;;;;;;4.82;2.35;;;16.60;67.70;;;;;;4991458;28;20062;-65
2021/06/03 06:29:15;;;;;;;6.38;3.08;;;16.80;67.00;;;;;;4992045;28;20046;-65
2021/06/03 06:31:42;;;;;;;10.45;5.18;;;16.90;66.20;;;;;;4991689;28;20348;-65
2021/06/03 06:34:09;;;;;;;5.65;2.88;;;17.10;66.20;;;;;;4993714;28;20552;-65
2021/06/03 06:36:36;;;;;;;4.55;2.33;;;17.20;65.90;;;;;;4991539;28;20353;-66
2021/06/03 06:39:06;;;;;;;5.38;2.22;;;17.30;65.80;;;;;;4990374;28;20054;-66
2021/06/03 06:41:34;;;;;;;;;;;17.40;65.20;;;;;;4992897;28;20517;-64
2021/06/03 06:44:05;;;;;;;3.20;1.80;;;17.60;64.60;;;;;;4991196;28;19925;-65
2021/06/03 06:46:33;;;;;;;4.80;2.30;;;17.70;64.50;;;;;;4991332;28;20054;-65
2021/06/03 06:49:00;;;;;;;4.53;2.03;;;17.90;63.50;;;;;;4991608;28;20058;-65
2021/06/03 06:51:29;;;;;;;6.43;2.72;;;18.00;62.30;;;;;;4991597;28;20288;-65
2021/06/03 06:53:56;;;;;;;6.32;2.80;;;18.20;63.00;;;;;;4975625;28;20180;-65
2021/06/03 06:56:23;;;;;;;5.30;2.35;;;18.30;61.90;;;;;;4991402;28;20049;-66
2021/06/03 06:58:51;;;;;;;4.70;2.33;;;18.50;61.90;;;;;;4992172;28;20121;-65
2021/06/03 07:01:18;;;;;;;4.40;2.42;;;18.60;62.00;;;;;;4987758;28;20088;-66
2021/06/03 07:03:45;;;;;;;4.28;2.70;;;18.80;61.00;;;;;;4988001;28;20116;-65
2021/06/03 07:06:12;;;;;;;4.70;2.13;;;18.90;60.50;;;;;;4986114;28;20101;-65
2021/06/03 07:08:40;;;;;;;3.70;2.05;;;19.10;59.30;;;;;;4990961;28;20269;-65
2021/06/03 07:11:12;;;;;;;3.53;2.30;;;19.20;59.80;;;;;;4991906;28;20042;-65
2021/06/03 07:13:40;;;;;;;3.88;1.95;;;19.40;59.50;;;;;;4992755;28;20065;-65
2021/06/03 07:16:08;;;;;;;5.82;2.50;;;19.50;58.40;;;;;;4989684;28;20062;-65
2021/06/03 07:18:35;;;;;;;3.85;1.95;;;19.60;57.10;;;;;;4990952;28;20085;-64
2021/06/03 07:21:08;;;;;;;4.22;1.98;;;19.80;56.30;;;;;;4991773;28;20170;-65
2021/06/03 07:23:38;;;;;;;4.68;2.20;;;20.00;56.10;;;;;;4990380;28;20049;-64
2021/06/03 07:26:08;;;;;;;9.52;2.65;;;20.20;55.10;;;;;;4993294;28;20229;-66
2021/06/03 07:28:35;;;;;;;;;;;20.50;54.00;;;;;;4993664;28;20093;-65
2021/06/03 07:31:10;;;;;;;3.05;1.65;;;20.70;53.10;;;;;;4993007;28;20233;-65
2021/06/03 07:33:41;;;;;;;5.37;2.23;;;21.10;51.50;;;;;;4994251;28;20049;-65
2021/06/03 07:36:08;;;;;;;4.10;2.03;;;21.50;51.60;;;;;;4992665;28;20348;-65
2021/06/03 07:38:35;;;;;;;4.13;2.17;;;21.90;50.30;;;;;;4990916;28;20054;-65
2021/06/03 07:41:04;;;;;;;3.22;1.92;;;22.10;48.00;;;;;;4994026;28;20050;-65
2021/06/03 07:43:32;;;;;;;4.70;2.10;;;22.60;49.00;;;;;;4993431;28;20492;-65
2021/06/03 07:45:59;;;;;;;2.90;1.67;;;23.00;47.10;;;;;;4993574;28;20054;-66
2021/06/03 07:48:30;;;;;;;3.88;1.75;;;23.30;46.50;;;;;;4992424;28;20062;-64
2021/06/03 07:50:57;;;;;;;5.65;2.10;;;23.50;45.00;;;;;;4976875;28;20372;-65
2021/06/03 07:53:25;;;;;;;6.25;2.20;;;23.60;45.30;;;;;;4991946;28;20042;-65
2021/06/03 07:55:52;;;;;;;2.95;1.85;;;23.80;44.70;;;;;;4975363;28;21227;-65
2021/06/03 07:58:19;;;;;;;2.95;1.75;;;23.90;44.10;;;;;;4990958;28;20261;-65
2021/06/03 08:00:47;;;;;;;4.18;2.33;;;24.00;43.20;;;;;;4989387;28;20055;-64
2021/06/03 08:03:13;;;;;;;6.65;2.78;;;24.10;43.80;;;;;;4976844;28;20046;-65
2021/06/03 08:05:44;;;;;;;4.85;2.45;;;24.40;43.80;;;;;;4994600;28;20065;-64
2021/06/03 08:08:11;;;;;;;5.22;2.13;;;24.40;42.40;;;;;;4997639;28;20356;-64
2021/06/03 08:10:43;;;;;;;5.18;1.90;;;24.50;42.00;;;;;;4993623;28;20066;-64
2021/06/03 08:13:11;;;;;;;3.50;1.75;;;24.50;41.80;;;;;;4995271;28;20369;-64
2021/06/03 08:15:43;;;;;;;3.40;2.03;;;24.60;42.00;;;;;;4996635;28;20034;-64
2021/06/03 08:18:14;;;;;;;4.35;2.38;;;24.70;41.20;;;;;;4996581;28;20057;-65
2021/06/03 08:20:44;;;;;;;4.22;1.70;;;24.70;42.30;;;;;;4993420;28;20113;-65
2021/06/03 08:23:16;;;;;;;2.95;1.55;;;25.10;41.60;;;;;;4993668;28;20077;-65
2021/06/03 08:25:44;;;;;;;4.78;1.92;;;25.30;41.00;;;;;;4991874;28;20054;-65
2021/06/03 08:28:15;;;;;;;2.47;1.55;;;25.30;39.50;;;;;;4995345;28;20384;-65
2021/06/03 08:30:42;;;;;;;4.28;1.75;;;25.30;38.80;;;;;;4993666;28;20049;-65
2021/06/03 08:33:10;;;;;;;6.55;2.08;;;25.20;39.10;;;;;;4993110;28;20081;-64
2021/06/03 08:35:38;;;;;;;4.45;2.05;;;25.10;39.20;;;;;;4994010;28;20049;-63
2021/06/03 08:38:10;;;;;;;8.02;2.20;;;24.90;40.30;;;;;;4994021;28;20237;-64
2021/06/03 08:40:41;;;;;;;5.78;2.05;;;24.70;41.90;;;;;;4996311;28;20352;-64
2021/06/03 08:43:10;;;;;;;5.65;2.17;;;24.30;40.80;;;;;;4993156;28;20046;-65
2021/06/03 08:45:41;;;;;;;3.20;1.88;;;24.30;42.80;;;;;;4978545;28;20376;-65
2021/06/03 08:48:14;;;;;;;2.90;1.50;;;24.10;41.80;;;;;;4993461;28;20046;-64
2021/06/03 08:50:48;;;;;;;4.13;2.13;;;24.10;43.50;;;;;;4992762;28;20152;-64
2021/06/03 08:53:16;;;;;;;3.10;1.77;;;24.00;43.60;;;;;;4993062;28;20038;-64
2021/06/03 08:58:30;;;;;;;3.70;1.98;;;24.10;45.90;;;;;;4982421;28;20049;-64
2021/06/03 09:00:59;;;;;;;4.53;1.90;;;23.80;46.60;;;;;;4976490;28;20201;-65
2021/06/03 09:03:28;;;;;;;3.73;2.30;;;23.70;46.10;;;;;;4999767;28;20370;-65
2021/06/03 09:05:59;;;;;;;5.70;2.55;;;23.60;45.90;;;;;;4996656;28;20041;-66
2021/06/03 09:08:29;;;;;;;7.35;4.38;;;23.70;45.20;;;;;;4997072;28;20062;-65
2021/06/03 09:10:57;;;;;;;10.52;5.93;;;23.70;44.70;;;;;;4998119;28;20061;-64
2021/06/03 09:13:26;;;;;;;7.87;2.53;;;23.70;45.10;;;;;;4999344;28;20049;-64
2021/06/03 09:15:55;;;;;;;3.10;1.80;;;23.80;44.70;;;;;;4999360;28;20050;-64
2021/06/03 09:18:40;;;;;;;;;;;23.80;44.00;;;;;;5000439;28;20352;-64
2021/06/03 09:21:12;;;;;;;3.25;1.50;;;23.60;42.30;;;;;;5000190;28;19926;-65
2021/06/03 09:23:43;;;;;;;5.60;1.83;;;23.80;43.40;;;;;;4997795;28;20042;-63
2021/06/03 09:26:12;;;;;;;2.65;1.52;;;24.00;42.10;;;;;;4997512;28;20054;-64
2021/06/03 09:28:40;;;;;;;3.37;1.90;;;23.90;42.90;;;;;;4999833;28;20054;-64
2021/06/03 09:31:20;;;;;;;4.55;1.65;;;23.90;42.60;;;;;;4997819;28;20054;-64
2021/06/03 09:33:54;;;;;;;3.38;1.70;;;24.20;41.70;;;;;;4997439;28;20101;-64
2021/06/03 09:36:27;;;;;;;2.55;1.50;;;24.20;42.00;;;;;;5000042;28;20054;-64
2021/06/03 09:39:11;;;;;;;4.07;2.35;;;24.30;42.60;;;;;;5001194;28;20042;-64
2021/06/03 09:41:41;;;;;;;4.57;2.60;;;24.40;43.30;;;;;;5001978;28;20301;-65
2021/06/03 09:44:12;;;;;;;4.22;2.15;;;24.60;43.40;;;;;;5001800;28;20062;-65
2021/06/03 09:46:42;;;;;;;4.65;2.67;;;24.60;42.70;;;;;;5001316;28;20062;-65
2021/06/03 09:49:19;;;;;;;3.08;1.90;;;24.60;42.70;;;;;;5002292;28;20046;-65
2021/06/03 09:51:47;;;;;;;3.70;2.13;;;24.80;42.60;;;;;;5002096;28;20282;-65
2021/06/03 09:54:21;;;;;;;4.10;1.85;;;24.80;43.30;;;;;;5001486;28;20058;-64
2021/06/03 09:56:51;;;;;;;6.00;2.30;;;24.60;44.30;;;;;;4996818;28;20054;-64
2021/06/03 09:59:25;;;;;;;3.60;1.83;;;24.60;44.10;;;;;;4996686;28;20054;-64
2021/06/03 10:02:00;;;;;;;5.00;2.10;;;25.10;43.20;;;;;;4994364;28;20054;-65
2021/06/03 10:04:32;;;;;;;4.18;1.73;;;25.30;42.40;;;;;;4997904;28;20081;-65
2021/06/03 10:07:05;;;;;;;3.38;1.70;;;25.80;41.80;;;;;;4996860;28;20197;-64
2021/06/03 10:09:52;;;;;;;3.47;2.08;;;26.60;40.80;;;;;;4995307;28;20144;-66
2021/06/03 10:12:44;;;;;;;4.38;1.63;;;27.40;38.70;;;;;;4997729;28;20043;-65
2021/06/03 10:15:43;;;;;;;2.35;1.63;;;27.80;36.70;;;;;;4989210;28;20407;-66
2021/06/03 10:18:15;;;;;;;3.65;1.90;;;28.30;36.40;;;;;;4996918;28;20269;-65
2021/06/03 10:20:49;;;;;;;3.17;1.83;;;28.40;36.20;;;;;;4995513;28;20042;-65
2021/06/03 10:23:19;;;;;;;2.85;1.80;;;28.30;35.70;;;;;;4998046;28;20042;-65
2021/06/03 10:26:05;;;;;;;2.67;1.70;;;28.00;37.70;;;;;;4997256;28;20190;-65
2021/06/03 10:28:33;;;;;;;3.53;1.80;;;28.00;37.40;;;;;;4998726;28;20333;-65
2021/06/03 10:31:07;;;;;;;4.15;1.90;;;28.10;37.30;;;;;;4999155;28;20366;-65
2021/06/03 10:33:36;;;;;;;2.55;1.67;;;28.30;37.10;;;;;;4998036;28;20074;-65
2021/06/03 10:36:05;;;;;;;8.73;2.05;;;29.00;35.70;;;;;;4995298;28;20337;-65
2021/06/03 10:38:32;;;;;;;;;;;29.60;34.70;;;;;;4998562;28;20125;-66
2021/06/03 10:41:03;;;;;;;3.45;1.88;;;29.30;35.60;;;;;;4997153;28;20021;-65
2021/06/03 10:43:33;;;;;;;4.15;2.05;;;29.20;35.10;;;;;;4994166;28;20104;-66
2021/06/03 10:46:00;;;;;;;2.55;1.75;;;29.00;35.00;;;;;;4991881;28;20707;-65
2021/06/03 10:48:27;;;;;;;6.93;1.77;;;28.60;34.50;;;;;;4992569;28;20215;-65
2021/06/03 10:50:55;;;;;;;2.75;1.63;;;28.10;35.50;;;;;;4991877;28;20058;-65
2021/06/03 10:53:24;;;;;;;5.68;2.03;;;28.40;35.80;;;;;;4993053;28;20423;-65
2021/06/03 10:55:54;;;;;;;2.85;1.95;;;28.60;35.00;;;;;;4993680;28;20222;-65
2021/06/03 10:58:32;;;;;;;3.83;2.00;;;28.70;34.70;;;;;;4989565;28;20357;-65
2021/06/03 11:01:06;;;;;;;2.72;1.48;;;28.80;35.60;;;;;;4985526;28;20054;-65
2021/06/03 11:03:38;;;;;;;2.60;1.55;;;29.50;34.70;;;;;;4988993;28;20070;-65
2021/06/03 11:06:07;;;;;;;4.10;2.25;;;29.60;34.50;;;;;;4997233;28;20046;-65
2021/06/03 11:08:36;;;;;;;4.57;1.48;;;29.70;34.10;;;;;;4999492;28;20046;-65
2021/06/03 11:11:23;;;;;;;3.70;1.80;;;30.40;33.50;;;;;;4996087;28;20053;-65
2021/06/03 11:14:09;;;;;;;3.58;1.90;;;31.70;32.00;;;;;;4994570;28;20314;-64
2021/06/03 11:16:51;;;;;;;2.78;1.70;;;31.70;31.10;;;;;;4996824;28;20052;-66
2021/06/03 11:19:19;;;;;;;3.95;1.90;;;31.10;32.50;;;;;;4997247;28;20046;-66
2021/06/03 11:21:58;;;;;;;2.90;1.52;;;31.10;31.80;;;;;;4995391;28;20100;-66
2021/06/03 11:24:48;;;;;;;4.43;2.00;;;32.00;31.30;;;;;;4995105;28;20100;-66
2021/06/03 11:27:20;;;;;;;2.80;1.70;;;33.80;29.00;;;;;;4994680;28;20073;-66
2021/06/03 11:30:02;;;;;;;3.63;1.73;;;33.50;29.10;;;;;;4997562;28;20058;-66
2021/06/03 11:32:32;;;;;;;2.42;1.50;;;34.20;28.70;;;;;;4996111;28;20100;-66
2021/06/03 11:34:59;;;;;;;;;;;35.60;26.70;;;;;;4996232;28;20282;-66
2021/06/03 11:37:28;;;;;;;6.72;1.90;;;36.50;26.40;;;;;;4996942;28;19955;-66
2021/06/03 11:39:57;;;;;;;3.30;1.77;;;38.10;23.40;;;;;;5001811;28;20400;-66
2021/06/03 11:42:30;;;;;;;1.92;1.40;;;38.20;24.00;;;;;;4998197;28;20372;-66
2021/06/03 11:45:25;;;;;;;3.70;1.70;;;37.80;22.50;;;;;;4998702;28;20176;-66
2021/06/03 11:47:57;;;;;;;3.38;1.40;;;39.10;20.60;;;;;;4998430;28;20050;-66
2021/06/03 11:50:57;;;;;;;3.83;1.20;;;38.70;20.00;;;;;;5000641;28;20046;-66
2021/06/03 11:53:26;;;;;;;2.15;1.38;;;38.90;18.30;;;;;;5000952;28;20097;-66
2021/06/03 11:55:57;;;;;;;1.95;1.30;;;39.00;18.20;;;;;;4984426;28;20077;-66
2021/06/03 11:58:45;;;;;;;2.60;1.67;;;39.50;18.20;;;;;;4995442;28;20108;-66
2021/06/03 12:01:36;;;;;;;3.47;1.77;;;39.10;18.60;;;;;;4989167;28;20054;-66
2021/06/03 12:04:09;;;;;;;3.83;1.73;;;39.60;18.50;;;;;;4993901;28;20065;-66
2021/06/03 12:06:39;;;;;;;2.30;1.33;;;39.70;17.90;;;;;;4992144;28;20366;-66
2021/06/03 12:09:18;;;;;;;4.03;1.50;;;40.50;17.60;;;;;;4989469;28;20054;-66
2021/06/03 12:11:47;;;;;;;5.22;1.70;;;39.70;17.60;;;;;;4998059;28;20042;-66
2021/06/03 12:14:16;;;;;;;3.20;1.40;;;40.00;17.80;;;;;;4992842;28;20055;-67
2021/06/03 12:16:46;;;;;;;1.63;1.23;;;40.50;17.30;;;;;;4994319;28;20055;-66
2021/06/03 12:19:15;;;;;;;4.05;1.70;;;41.40;16.20;;;;;;4996306;28;20484;-67
2021/06/03 12:21:45;;;;;;;1.65;1.25;;;41.00;16.70;;;;;;4995781;28;20072;-66
2021/06/03 12:24:12;;;;;;;2.30;1.30;;;41.80;15.70;;;;;;4993195;28;20221;-66
2021/06/03 12:26:41;;;;;;;2.60;1.50;;;42.40;14.90;;;;;;5000607;28;20057;-66
2021/06/03 12:29:23;;;;;;;4.35;1.92;;;42.80;14.20;;;;;;5000386;28;20062;-66
2021/06/03 12:31:52;;;;;;;2.50;1.58;;;42.20;15.10;;;;;;4998056;28;20057;-66
2021/06/03 12:34:20;;;;;;;2.38;1.13;;;41.80;15.30;;;;;;4994120;28;20058;-66
2021/06/03 12:36:47;;;;;;;4.70;1.55;;;40.00;15.90;;;;;;4989654;28;20226;-66
2021/06/03 12:39:14;;;;;;;2.00;1.33;;;38.50;16.70;;;;;;4991955;28;20140;-65
2021/06/03 12:41:43;;;;;;;1.80;1.27;;;36.20;18.40;;;;;;4996149;28;20053;-66
2021/06/03 12:44:12;;;;;;;3.15;1.10;;;34.90;19.50;;;;;;4993903;28;20353;-66
2021/06/03 12:46:42;;;;;;;2.05;1.20;;;36.90;16.90;;;;;;5000268;28;20112;-66
2021/06/03 12:49:13;;;;;;;3.95;1.38;;;39.10;15.80;;;;;;4996736;28;20045;-66
2021/06/03 12:51:48;;;;;;;2.85;1.60;;;38.60;16.20;;;;;;4999009;28;20088;-66
2021/06/03 12:54:16;;;;;;;2.55;1.30;;;37.60;16.30;;;;;;4999776;28;20069;-66
2021/06/03 12:56:49;;;;;;;2.47;1.33;;;37.50;16.90;;;;;;4996401;28;20046;-66
2021/06/03 12:59:23;;;;;;;3.95;1.73;;;37.60;16.70;;;;;;4997911;28;20046;-66
2021/06/03 13:01:56;;;;;;;2.83;1.20;;;37.60;16.60;;;;;;4991879;28;20064;-66
2021/06/03 13:04:36;;;;;;;3.88;1.50;;;38.70;15.50;;;;;;4992561;28;20050;-67
2021/06/03 13:07:12;;;;;;;1.95;1.27;;;39.40;14.90;;;;;;4999054;28;20046;-66
2021/06/03 13:09:39;;;;;;;2.20;1.02;;;40.20;14.10;;;;;;4996911;28;20047;-66